Terminal Aerodrome Forecast
Issued by NWS

Home | Current Version | Previous Version | Text Only | Print | Product List | Glossary On
Versions: 1 2 3 4 5 6 7 8 9 10 11 12 13 14 15 16 17 18 19 20 21 22
644
FTUS45 KGJT 201133
TAFDRO
TAF
KDRO 201133Z 2012/2112 04005KT P6SM SCT200
     FM201600 15007KT P6SM VCSH SCT090 OVC150
     FM202100 20009KT P6SM -RA SCT080 OVC090
     FM210000 18007KT P6SM -RASN OVC060
     FM210200 23006KT 4SM -RASN OVC030
     FM210400 24007KT 1SM -SN BR OVC015
     FM210600 25007KT P6SM BKN020=

USA.gov is the U.S. government's official web portal to all federal, state and local government web resources and services.